Novomar — 5BCT2 — position and weather

sailwx.info

Track history (hours):
 
Tides and Currents Weather Stations Pressure Air Temp Water Temp Dewpoint Dewpoint Depression Visibility Wind Speed Wind Dir Waves Ship Positions

Novomar

Last reported at 2015-Aug-31 07:16 UTC. Time now 2015-Sep-05 16:23 UTC.
Position N 50°34' E 000°09'.

Length 89 m; draft 5.3 m.

Type: Cargo ship. MMSI: 210974000.

Date/timePositionNaut miles runAvg speedWind from/ knotsBaromVisibWave heightAir tempDewpointWater temp
2015-Aug-31 07:16N 50°34' E 000°09'810.4
2015-Aug-31 06:33N 50°36' E 000°20'1111.5
2015-Aug-31 05:33N 50°40' E 000°37'1211.5
2015-Aug-31 04:33N 50°46' E 000°52'1210.6
2015-Aug-31 03:28N 50°53' E 001°07'9 9.3
2015-Aug-31 02:32N 50°59' E 001°17'7 7.6
2015-Aug-31 01:33N 51°04' E 001°26'6 6.5
2015-Aug-31 00:33N 51°08' E 001°34'7 7.1
2015-Aug-30 23:33N 51°12' E 001°43'9 9.1
2015-Aug-30 22:33N 51°20' E 001°50'1211.9
2015-Aug-30 21:33N 51°30' E 002°01'16010.0
2015-Aug-30 05:30N 53°32' E 004°52'8 8.7
2015-Aug-30 04:33N 53°34' E 005°05'10 9.7
2015-Aug-30 03:33N 53°37' E 005°20'1111.0
2015-Aug-30 02:33N 53°41' E 005°38'1111.3
2015-Aug-30 01:32N 53°45' E 005°56'1211.0
2015-Aug-30 00:29N 53°48' E 006°15'1010.7
2015-Aug-29 23:32N 53°51' E 006°31'1110.1
2015-Aug-29 22:26N 53°54' E 006°50'17 9.1
2015-Aug-29 20:33N 53°58' E 007°18'9 8.8
2015-Aug-29 19:33N 54°00' E 007°32'9 9.0
2015-Aug-29 18:33N 54°01' E 007°47'10 9.9
2015-Aug-29 17:33N 54°01' E 008°04'1010.3
2015-Aug-29 16:33N 53°60' E 008°22'1212.4
2015-Aug-29 15:33N 53°55' E 008°41'1111.1
2015-Aug-29 14:33N 53°51' E 008°59'6 6.3
2015-Aug-29 13:33N 53°54' E 009°09'6 5.6
2015-Aug-29 12:33N 53°58' E 009°15'6 6.0
2015-Aug-29 11:33N 54°03' E 009°19'18 5.8
2015-Aug-29 08:26N 54°17' E 009°39'7 7.9
2015-Aug-29 07:33N 54°22' E 009°47'8 7.7
2015-Aug-29 06:33N 54°21' E 010°01'5 4.6
2015-Aug-29 05:33N 54°22' E 010°09'2 1.9
2015-Aug-29 04:33N 54°23' E 010°11'9 9.0
2015-Aug-29 03:33N 54°30' E 010°20'9 9.1
2015-Aug-29 02:33N 54°34' E 010°34'11 9.4
2015-Aug-29 01:25N 54°35' E 010°53'7 8.5
2015-Aug-29 00:33N 54°36' E 011°05'8 8.3
2015-Aug-28 23:33N 54°34' E 011°19'9 9.0
2015-Aug-28 22:33N 54°30' E 011°33'9 9.3
2015-Aug-28 21:33N 54°26' E 011°48'9 9.1
2015-Aug-28 20:33N 54°26' E 012°03'69 9.2
2015-Aug-28 13:05N 55°00' E 013°47'5 9.9
2015-Aug-28 12:33N 55°02' E 013°55'10 9.6
2015-Aug-28 11:34N 55°07' E 014°10'10 9.8
2015-Aug-28 10:33N 55°15' E 014°20'10 9.8
2015-Aug-28 09:34N 55°23' E 014°30'1010.0
2015-Aug-28 08:33N 55°29' E 014°44'10 9.8
2015-Aug-28 07:33N 55°34' E 014°59'10 9.5
2015-Aug-28 06:34N 55°39' E 015°13'89 8.9
2015-Aug-27 20:32N 56°42' E 017°07'9 9.0
2015-Aug-27 19:30N 56°50' E 017°13'10 8.7
2015-Aug-27 18:19N 56°60' E 017°20'6 8.6
2015-Aug-27 17:33N 57°06' E 017°24'9 8.7
2015-Aug-27 16:33N 57°14' E 017°30'9 8.7
2015-Aug-27 15:33N 57°22' E 017°36'36 8.9
2015-Aug-27 11:33N 57°53' E 018°08'9 9.3
2015-Aug-27 10:33N 58°01' E 018°17'  
Track history (hours):
 
Tides and Currents Weather Stations Pressure Air Temp Water Temp Dewpoint Dewpoint Depression Visibility Wind Speed Wind Dir Waves Ship Positions

Novomar

Last reported at 2015-Aug-31 07:16 UTC. Time now 2015-Sep-05 16:23 UTC.
Position N 50°34' E 000°09'.

Length 89 m; draft 5.3 m.

Type: Cargo ship. MMSI: 210974000.

Date/timePositionNaut miles runAvg speedWind from/ knotsBaromVisibWave heightAir tempDewpointWater temp
2015-Aug-31 07:16N 50°34' E 000°09'810.4
2015-Aug-31 06:33N 50°36' E 000°20'1111.5
2015-Aug-31 05:33N 50°40' E 000°37'1211.5
2015-Aug-31 04:33N 50°46' E 000°52'1210.6
2015-Aug-31 03:28N 50°53' E 001°07'9 9.3
2015-Aug-31 02:32N 50°59' E 001°17'7 7.6
2015-Aug-31 01:33N 51°04' E 001°26'6 6.5
2015-Aug-31 00:33N 51°08' E 001°34'7 7.1
2015-Aug-30 23:33N 51°12' E 001°43'9 9.1
2015-Aug-30 22:33N 51°20' E 001°50'1211.9
2015-Aug-30 21:33N 51°30' E 002°01'16010.0
2015-Aug-30 05:30N 53°32' E 004°52'8 8.7
2015-Aug-30 04:33N 53°34' E 005°05'10 9.7
2015-Aug-30 03:33N 53°37' E 005°20'1111.0
2015-Aug-30 02:33N 53°41' E 005°38'1111.3
2015-Aug-30 01:32N 53°45' E 005°56'1211.0
2015-Aug-30 00:29N 53°48' E 006°15'1010.7
2015-Aug-29 23:32N 53°51' E 006°31'1110.1
2015-Aug-29 22:26N 53°54' E 006°50'17 9.1
2015-Aug-29 20:33N 53°58' E 007°18'9 8.8
2015-Aug-29 19:33N 54°00' E 007°32'9 9.0
2015-Aug-29 18:33N 54°01' E 007°47'10 9.9
2015-Aug-29 17:33N 54°01' E 008°04'1010.3
2015-Aug-29 16:33N 53°60' E 008°22'1212.4
2015-Aug-29 15:33N 53°55' E 008°41'1111.1
2015-Aug-29 14:33N 53°51' E 008°59'6 6.3
2015-Aug-29 13:33N 53°54' E 009°09'6 5.6
2015-Aug-29 12:33N 53°58' E 009°15'6 6.0
2015-Aug-29 11:33N 54°03' E 009°19'18 5.8
2015-Aug-29 08:26N 54°17' E 009°39'7 7.9
2015-Aug-29 07:33N 54°22' E 009°47'8 7.7
2015-Aug-29 06:33N 54°21' E 010°01'5 4.6
2015-Aug-29 05:33N 54°22' E 010°09'2 1.9
2015-Aug-29 04:33N 54°23' E 010°11'9 9.0
2015-Aug-29 03:33N 54°30' E 010°20'9 9.1
2015-Aug-29 02:33N 54°34' E 010°34'11 9.4
2015-Aug-29 01:25N 54°35' E 010°53'7 8.5
2015-Aug-29 00:33N 54°36' E 011°05'8 8.3
2015-Aug-28 23:33N 54°34' E 011°19'9 9.0
2015-Aug-28 22:33N 54°30' E 011°33'9 9.3
2015-Aug-28 21:33N 54°26' E 011°48'9 9.1
2015-Aug-28 20:33N 54°26' E 012°03'69 9.2
2015-Aug-28 13:05N 55°00' E 013°47'5 9.9
2015-Aug-28 12:33N 55°02' E 013°55'10 9.6
2015-Aug-28 11:34N 55°07' E 014°10'10 9.8
2015-Aug-28 10:33N 55°15' E 014°20'10 9.8
2015-Aug-28 09:34N 55°23' E 014°30'1010.0
2015-Aug-28 08:33N 55°29' E 014°44'10 9.8
2015-Aug-28 07:33N 55°34' E 014°59'10 9.5
2015-Aug-28 06:34N 55°39' E 015°13'89 8.9
2015-Aug-27 20:32N 56°42' E 017°07'9 9.0
2015-Aug-27 19:30N 56°50' E 017°13'10 8.7
2015-Aug-27 18:19N 56°60' E 017°20'6 8.6
2015-Aug-27 17:33N 57°06' E 017°24'9 8.7
2015-Aug-27 16:33N 57°14' E 017°30'9 8.7
2015-Aug-27 15:33N 57°22' E 017°36'36 8.9
2015-Aug-27 11:33N 57°53' E 018°08'9 9.3
2015-Aug-27 10:33N 58°01' E 018°17'  

Dump ship's entire track history